sensor_id;sensor_type;location;lat;lon;timestamp;P1;durP1;ratioP1;P2;durP2;ratioP2
58101;SDS011;52034;51.926;6.320;2024-03-07T00:00:56;81.43;;;50.35;;
58101;SDS011;52034;51.926;6.320;2024-03-07T00:02:59;86.10;;;52.65;;
58101;SDS011;52034;51.926;6.320;2024-03-07T00:04:01;80.78;;;50.78;;
58101;SDS011;52034;51.926;6.320;2024-03-07T00:06:05;79.50;;;50.00;;
58101;SDS011;52034;51.926;6.320;2024-03-07T00:07:07;85.38;;;50.95;;
58101;SDS011;52034;51.926;6.320;2024-03-07T00:08:08;82.57;;;50.42;;
58101;SDS011;52034;51.926;6.320;2024-03-07T00:09:11;79.57;;;50.47;;
58101;SDS011;52034;51.926;6.320;2024-03-07T00:11:16;86.45;;;51.72;;
58101;SDS011;52034;51.926;6.320;2024-03-07T00:12:18;91.40;;;53.67;;
58101;SDS011;52034;51.926;6.320;2024-03-07T00:13:20;83.40;;;51.58;;
58101;SDS011;52034;51.926;6.320;2024-03-07T00:14:22;87.57;;;51.42;;
58101;SDS011;52034;51.926;6.320;2024-03-07T00:15:28;83.80;;;51.67;;
58101;SDS011;52034;51.926;6.320;2024-03-07T00:16:31;78.85;;;49.38;;
58101;SDS011;52034;51.926;6.320;2024-03-07T00:17:34;85.43;;;50.83;;
58101;SDS011;52034;51.926;6.320;2024-03-07T00:18:36;87.72;;;51.80;;
58101;SDS011;52034;51.926;6.320;2024-03-07T00:19:39;83.95;;;52.45;;
58101;SDS011;52034;51.926;6.320;2024-03-07T00:20:41;80.97;;;51.20;;
58101;SDS011;52034;51.926;6.320;2024-03-07T00:21:44;86.70;;;53.42;;
58101;SDS011;52034;51.926;6.320;2024-03-07T00:22:45;88.43;;;52.17;;
58101;SDS011;52034;51.926;6.320;2024-03-07T00:24:50;83.53;;;52.88;;
58101;SDS011;52034;51.926;6.320;2024-03-07T00:26:53;88.60;;;52.78;;
58101;SDS011;52034;51.926;6.320;2024-03-07T00:27:55;86.97;;;52.72;;
58101;SDS011;52034;51.926;6.320;2024-03-07T00:28:58;93.32;;;54.15;;
58101;SDS011;52034;51.926;6.320;2024-03-07T00:30:00;88.25;;;52.42;;
58101;SDS011;52034;51.926;6.320;2024-03-07T00:31:02;86.18;;;53.97;;
58101;SDS011;52034;51.926;6.320;2024-03-07T00:32:04;89.80;;;53.15;;
58101;SDS011;52034;51.926;6.320;2024-03-07T00:33:06;86.55;;;53.45;;
58101;SDS011;52034;51.926;6.320;2024-03-07T00:34:09;79.13;;;51.70;;
58101;SDS011;52034;51.926;6.320;2024-03-07T00:35:20;87.28;;;52.95;;
58101;SDS011;52034;51.926;6.320;2024-03-07T00:36:22;91.30;;;53.70;;
58101;SDS011;52034;51.926;6.320;2024-03-07T00:39:27;85.38;;;51.25;;
58101;SDS011;52034;51.926;6.320;2024-03-07T00:41:31;91.95;;;53.50;;
58101;SDS011;52034;51.926;6.320;2024-03-07T00:42:33;87.07;;;52.70;;
58101;SDS011;52034;51.926;6.320;2024-03-07T00:43:35;85.95;;;52.65;;
58101;SDS011;52034;51.926;6.320;2024-03-07T00:44:37;87.22;;;52.47;;
58101;SDS011;52034;51.926;6.320;2024-03-07T00:45:39;88.47;;;52.92;;
58101;SDS011;52034;51.926;6.320;2024-03-07T00:46:41;82.05;;;52.33;;
58101;SDS011;52034;51.926;6.320;2024-03-07T00:48:44;86.60;;;52.78;;
58101;SDS011;52034;51.926;6.320;2024-03-07T00:49:47;83.75;;;53.33;;
58101;SDS011;52034;51.926;6.320;2024-03-07T00:51:50;85.50;;;52.72;;
58101;SDS011;52034;51.926;6.320;2024-03-07T00:53:54;85.83;;;53.50;;
58101;SDS011;52034;51.926;6.320;2024-03-07T00:55:57;88.68;;;52.47;;
58101;SDS011;52034;51.926;6.320;2024-03-07T00:58:01;85.70;;;53.27;;
58101;SDS011;52034;51.926;6.320;2024-03-07T00:59:04;87.25;;;53.30;;
58101;SDS011;52034;51.926;6.320;2024-03-07T01:00:07;86.70;;;53.33;;
58101;SDS011;52034;51.926;6.320;2024-03-07T01:01:16;90.40;;;53.65;;
58101;SDS011;52034;51.926;6.320;2024-03-07T01:02:18;88.88;;;53.10;;
58101;SDS011;52034;51.926;6.320;2024-03-07T01:03:20;91.07;;;55.17;;
58101;SDS011;52034;51.926;6.320;2024-03-07T01:04:22;87.32;;;51.83;;
58101;SDS011;52034;51.926;6.320;2024-03-07T01:06:26;86.50;;;52.13;;
58101;SDS011;52034;51.926;6.320;2024-03-07T01:07:28;87.85;;;53.47;;
58101;SDS011;52034;51.926;6.320;2024-03-07T01:08:31;86.07;;;52.28;;
58101;SDS011;52034;51.926;6.320;2024-03-07T01:09:33;86.60;;;53.97;;
58101;SDS011;52034;51.926;6.320;2024-03-07T01:10:36;98.00;;;55.13;;
58101;SDS011;52034;51.926;6.320;2024-03-07T01:11:38;96.03;;;55.83;;
58101;SDS011;52034;51.926;6.320;2024-03-07T01:12:40;95.85;;;55.10;;
58101;SDS011;52034;51.926;6.320;2024-03-07T01:13:44;93.38;;;56.72;;
58101;SDS011;52034;51.926;6.320;2024-03-07T01:15:48;93.57;;;56.22;;
58101;SDS011;52034;51.926;6.320;2024-03-07T01:16:50;100.95;;;58.30;;
58101;SDS011;52034;51.926;6.320;2024-03-07T01:17:52;97.03;;;56.55;;
58101;SDS011;52034;51.926;6.320;2024-03-07T01:19:55;100.07;;;58.08;;
58101;SDS011;52034;51.926;6.320;2024-03-07T01:21:58;93.05;;;56.65;;
58101;SDS011;52034;51.926;6.320;2024-03-07T01:24:02;86.72;;;54.22;;
58101;SDS011;52034;51.926;6.320;2024-03-07T01:25:04;97.03;;;56.13;;
58101;SDS011;52034;51.926;6.320;2024-03-07T01:26:06;99.82;;;56.88;;
58101;SDS011;52034;51.926;6.320;2024-03-07T01:27:10;95.90;;;56.10;;
58101;SDS011;52034;51.926;6.320;2024-03-07T01:28:11;96.25;;;55.95;;
58101;SDS011;52034;51.926;6.320;2024-03-07T01:29:15;101.65;;;58.72;;
58101;SDS011;52034;51.926;6.320;2024-03-07T01:30:17;94.53;;;57.05;;
58101;SDS011;52034;51.926;6.320;2024-03-07T01:32:20;101.80;;;58.17;;
58101;SDS011;52034;51.926;6.320;2024-03-07T01:33:23;95.32;;;56.55;;
58101;SDS011;52034;51.926;6.320;2024-03-07T01:34:25;93.47;;;57.72;;
58101;SDS011;52034;51.926;6.320;2024-03-07T01:36:28;102.05;;;59.55;;
58101;SDS011;52034;51.926;6.320;2024-03-07T01:37:30;99.82;;;59.28;;
58101;SDS011;52034;51.926;6.320;2024-03-07T01:38:32;100.03;;;58.50;;
58101;SDS011;52034;51.926;6.320;2024-03-07T01:40:35;94.45;;;57.30;;
58101;SDS011;52034;51.926;6.320;2024-03-07T01:41:37;102.53;;;60.25;;
58101;SDS011;52034;51.926;6.320;2024-03-07T01:42:39;99.75;;;58.75;;
58101;SDS011;52034;51.926;6.320;2024-03-07T01:43:42;97.63;;;58.22;;
58101;SDS011;52034;51.926;6.320;2024-03-07T01:44:44;99.22;;;57.47;;
58101;SDS011;52034;51.926;6.320;2024-03-07T01:45:46;97.72;;;59.67;;
58101;SDS011;52034;51.926;6.320;2024-03-07T01:46:48;101.72;;;59.03;;
58101;SDS011;52034;51.926;6.320;2024-03-07T01:47:52;94.97;;;57.90;;
58101;SDS011;52034;51.926;6.320;2024-03-07T01:48:57;104.13;;;60.35;;
58101;SDS011;52034;51.926;6.320;2024-03-07T01:50:00;93.72;;;57.58;;
58101;SDS011;52034;51.926;6.320;2024-03-07T01:51:02;100.65;;;59.60;;
58101;SDS011;52034;51.926;6.320;2024-03-07T01:52:08;102.43;;;60.17;;
58101;SDS011;52034;51.926;6.320;2024-03-07T01:53:11;95.07;;;59.28;;
58101;SDS011;52034;51.926;6.320;2024-03-07T01:54:15;101.03;;;59.88;;
58101;SDS011;52034;51.926;6.320;2024-03-07T01:55:17;95.57;;;58.03;;
58101;SDS011;52034;51.926;6.320;2024-03-07T01:56:19;99.03;;;59.13;;
58101;SDS011;52034;51.926;6.320;2024-03-07T01:57:22;100.65;;;60.45;;
58101;SDS011;52034;51.926;6.320;2024-03-07T01:58:24;103.78;;;61.10;;
58101;SDS011;52034;51.926;6.320;2024-03-07T01:59:26;96.53;;;58.78;;
58101;SDS011;52034;51.926;6.320;2024-03-07T02:00:28;107.93;;;62.03;;
58101;SDS011;52034;51.926;6.320;2024-03-07T02:02:32;94.18;;;59.08;;
58101;SDS011;52034;51.926;6.320;2024-03-07T02:03:35;108.10;;;61.47;;
58101;SDS011;52034;51.926;6.320;2024-03-07T02:04:37;105.10;;;60.05;;
58101;SDS011;52034;51.926;6.320;2024-03-07T02:06:44;98.78;;;60.22;;
58101;SDS011;52034;51.926;6.320;2024-03-07T02:07:46;97.47;;;58.15;;
58101;SDS011;52034;51.926;6.320;2024-03-07T02:08:48;97.88;;;60.08;;
58101;SDS011;52034;51.926;6.320;2024-03-07T02:11:00;108.28;;;61.35;;
58101;SDS011;52034;51.926;6.320;2024-03-07T02:12:02;107.78;;;61.97;;
58101;SDS011;52034;51.926;6.320;2024-03-07T02:13:04;103.78;;;59.60;;
58101;SDS011;52034;51.926;6.320;2024-03-07T02:14:06;108.88;;;61.47;;
58101;SDS011;52034;51.926;6.320;2024-03-07T02:16:09;101.18;;;62.33;;
58101;SDS011;52034;51.926;6.320;2024-03-07T02:18:13;102.90;;;61.43;;
58101;SDS011;52034;51.926;6.320;2024-03-07T02:19:15;107.40;;;59.38;;
58101;SDS011;52034;51.926;6.320;2024-03-07T02:20:17;97.45;;;58.58;;
58101;SDS011;52034;51.926;6.320;2024-03-07T02:22:20;100.90;;;60.40;;
58101;SDS011;52034;51.926;6.320;2024-03-07T02:23:22;100.50;;;58.97;;
58101;SDS011;52034;51.926;6.320;2024-03-07T02:25:26;97.40;;;57.15;;
58101;SDS011;52034;51.926;6.320;2024-03-07T02:26:28;98.78;;;58.40;;
58101;SDS011;52034;51.926;6.320;2024-03-07T02:28:32;99.07;;;59.85;;
58101;SDS011;52034;51.926;6.320;2024-03-07T02:29:33;100.95;;;58.53;;
58101;SDS011;52034;51.926;6.320;2024-03-07T02:30:36;100.63;;;59.47;;
58101;SDS011;52034;51.926;6.320;2024-03-07T02:31:38;99.82;;;58.45;;
58101;SDS011;52034;51.926;6.320;2024-03-07T02:32:42;99.07;;;58.95;;
58101;SDS011;52034;51.926;6.320;2024-03-07T02:33:45;109.65;;;61.67;;
58101;SDS011;52034;51.926;6.320;2024-03-07T02:34:47;95.03;;;56.97;;
58101;SDS011;52034;51.926;6.320;2024-03-07T02:36:51;100.72;;;57.90;;
58101;SDS011;52034;51.926;6.320;2024-03-07T02:37:53;96.53;;;57.95;;
58101;SDS011;52034;51.926;6.320;2024-03-07T02:39:56;99.43;;;59.57;;
58101;SDS011;52034;51.926;6.320;2024-03-07T02:40:58;98.60;;;59.72;;
58101;SDS011;52034;51.926;6.320;2024-03-07T02:42:00;95.32;;;58.42;;
58101;SDS011;52034;51.926;6.320;2024-03-07T02:43:02;105.53;;;60.45;;
58101;SDS011;52034;51.926;6.320;2024-03-07T02:44:08;109.38;;;61.08;;
58101;SDS011;52034;51.926;6.320;2024-03-07T02:45:10;99.43;;;58.05;;
58101;SDS011;52034;51.926;6.320;2024-03-07T02:46:15;98.57;;;58.50;;
58101;SDS011;52034;51.926;6.320;2024-03-07T02:47:17;98.20;;;56.78;;
58101;SDS011;52034;51.926;6.320;2024-03-07T02:48:19;103.45;;;58.30;;
58101;SDS011;52034;51.926;6.320;2024-03-07T02:50:22;105.97;;;59.33;;
58101;SDS011;52034;51.926;6.320;2024-03-07T02:51:24;99.72;;;58.28;;
58101;SDS011;52034;51.926;6.320;2024-03-07T02:53:28;101.85;;;58.88;;
58101;SDS011;52034;51.926;6.320;2024-03-07T02:55:33;99.25;;;58.60;;
58101;SDS011;52034;51.926;6.320;2024-03-07T02:57:37;104.82;;;60.33;;
58101;SDS011;52034;51.926;6.320;2024-03-07T02:59:40;101.57;;;58.17;;
58101;SDS011;52034;51.926;6.320;2024-03-07T03:00:43;104.72;;;58.53;;
58101;SDS011;52034;51.926;6.320;2024-03-07T03:02:47;100.10;;;60.10;;
58101;SDS011;52034;51.926;6.320;2024-03-07T03:03:50;94.57;;;58.95;;
58101;SDS011;52034;51.926;6.320;2024-03-07T03:05:53;103.80;;;58.92;;
58101;SDS011;52034;51.926;6.320;2024-03-07T03:06:55;100.35;;;59.97;;
58101;SDS011;52034;51.926;6.320;2024-03-07T03:07:57;104.70;;;59.85;;
58101;SDS011;52034;51.926;6.320;2024-03-07T03:10:01;96.30;;;57.25;;
58101;SDS011;52034;51.926;6.320;2024-03-07T03:11:06;98.35;;;58.28;;
58101;SDS011;52034;51.926;6.320;2024-03-07T03:12:10;100.50;;;59.60;;
58101;SDS011;52034;51.926;6.320;2024-03-07T03:13:12;104.18;;;61.05;;
58101;SDS011;52034;51.926;6.320;2024-03-07T03:15:16;101.25;;;60.30;;
58101;SDS011;52034;51.926;6.320;2024-03-07T03:16:18;98.57;;;58.92;;
58101;SDS011;52034;51.926;6.320;2024-03-07T03:17:38;108.43;;;61.83;;
58101;SDS011;52034;51.926;6.320;2024-03-07T03:19:42;105.82;;;60.53;;
58101;SDS011;52034;51.926;6.320;2024-03-07T03:21:49;103.40;;;60.42;;
58101;SDS011;52034;51.926;6.320;2024-03-07T03:24:10;105.82;;;61.42;;
58101;SDS011;52034;51.926;6.320;2024-03-07T03:26:16;103.18;;;61.88;;
58101;SDS011;52034;51.926;6.320;2024-03-07T03:28:19;114.47;;;63.45;;
58101;SDS011;52034;51.926;6.320;2024-03-07T03:29:22;107.80;;;60.80;;
58101;SDS011;52034;51.926;6.320;2024-03-07T03:30:24;107.32;;;62.42;;
58101;SDS011;52034;51.926;6.320;2024-03-07T03:32:27;112.32;;;63.58;;
58101;SDS011;52034;51.926;6.320;2024-03-07T03:33:29;102.95;;;60.40;;
58101;SDS011;52034;51.926;6.320;2024-03-07T03:34:31;107.97;;;61.80;;
58101;SDS011;52034;51.926;6.320;2024-03-07T03:36:35;105.30;;;61.65;;
58101;SDS011;52034;51.926;6.320;2024-03-07T03:37:37;108.45;;;60.88;;
58101;SDS011;52034;51.926;6.320;2024-03-07T03:38:38;104.18;;;59.45;;
58101;SDS011;52034;51.926;6.320;2024-03-07T03:40:44;106.82;;;61.90;;
58101;SDS011;52034;51.926;6.320;2024-03-07T03:41:46;108.03;;;60.90;;
58101;SDS011;52034;51.926;6.320;2024-03-07T03:43:50;98.68;;;59.85;;
58101;SDS011;52034;51.926;6.320;2024-03-07T03:44:51;110.68;;;62.35;;
58101;SDS011;52034;51.926;6.320;2024-03-07T03:45:54;107.55;;;61.70;;
58101;SDS011;52034;51.926;6.320;2024-03-07T03:47:57;106.37;;;61.70;;
58101;SDS011;52034;51.926;6.320;2024-03-07T03:48:59;104.10;;;60.28;;
58101;SDS011;52034;51.926;6.320;2024-03-07T03:50:04;103.60;;;61.60;;
58101;SDS011;52034;51.926;6.320;2024-03-07T03:51:10;103.15;;;62.55;;
58101;SDS011;52034;51.926;6.320;2024-03-07T03:52:14;113.00;;;63.35;;
58101;SDS011;52034;51.926;6.320;2024-03-07T03:54:19;106.53;;;61.60;;
58101;SDS011;52034;51.926;6.320;2024-03-07T03:55:20;101.82;;;60.83;;
58101;SDS011;52034;51.926;6.320;2024-03-07T03:56:23;109.03;;;61.88;;
58101;SDS011;52034;51.926;6.320;2024-03-07T03:57:26;100.07;;;60.72;;
58101;SDS011;52034;51.926;6.320;2024-03-07T03:58:29;107.78;;;60.83;;
58101;SDS011;52034;51.926;6.320;2024-03-07T04:00:32;97.20;;;59.50;;
58101;SDS011;52034;51.926;6.320;2024-03-07T04:01:34;104.95;;;61.65;;
58101;SDS011;52034;51.926;6.320;2024-03-07T04:02:37;99.82;;;58.88;;
58101;SDS011;52034;51.926;6.320;2024-03-07T04:04:40;101.18;;;59.45;;
58101;SDS011;52034;51.926;6.320;2024-03-07T04:05:42;99.85;;;59.22;;
58101;SDS011;52034;51.926;6.320;2024-03-07T04:06:44;101.70;;;56.38;;
58101;SDS011;52034;51.926;6.320;2024-03-07T04:07:46;101.35;;;60.15;;
58101;SDS011;52034;51.926;6.320;2024-03-07T04:08:48;96.20;;;58.75;;
58101;SDS011;52034;51.926;6.320;2024-03-07T04:10:51;99.97;;;58.78;;
58101;SDS011;52034;51.926;6.320;2024-03-07T04:12:55;107.10;;;62.33;;
58101;SDS011;52034;51.926;6.320;2024-03-07T04:13:56;111.60;;;61.83;;
58101;SDS011;52034;51.926;6.320;2024-03-07T04:14:58;107.65;;;61.85;;
58101;SDS011;52034;51.926;6.320;2024-03-07T04:17:01;111.75;;;61.90;;
58101;SDS011;52034;51.926;6.320;2024-03-07T04:18:03;102.93;;;61.35;;
58101;SDS011;52034;51.926;6.320;2024-03-07T04:19:05;110.75;;;64.07;;
58101;SDS011;52034;51.926;6.320;2024-03-07T04:20:10;120.55;;;65.07;;
58101;SDS011;52034;51.926;6.320;2024-03-07T04:21:12;110.60;;;62.53;;
58101;SDS011;52034;51.926;6.320;2024-03-07T04:23:16;114.07;;;61.08;;
58101;SDS011;52034;51.926;6.320;2024-03-07T04:25:19;99.95;;;59.85;;
58101;SDS011;52034;51.926;6.320;2024-03-07T04:27:22;108.28;;;60.35;;
58101;SDS011;52034;51.926;6.320;2024-03-07T04:28:24;107.95;;;61.88;;
58101;SDS011;52034;51.926;6.320;2024-03-07T04:30:28;106.80;;;62.35;;
58101;SDS011;52034;51.926;6.320;2024-03-07T04:32:32;120.40;;;64.80;;
58101;SDS011;52034;51.926;6.320;2024-03-07T04:33:35;109.70;;;62.47;;
58101;SDS011;52034;51.926;6.320;2024-03-07T04:34:37;108.90;;;61.35;;
58101;SDS011;52034;51.926;6.320;2024-03-07T04:35:40;116.80;;;64.05;;
58101;SDS011;52034;51.926;6.320;2024-03-07T04:37:44;111.18;;;63.15;;
58101;SDS011;52034;51.926;6.320;2024-03-07T04:38:46;106.13;;;62.17;;
58101;SDS011;52034;51.926;6.320;2024-03-07T04:39:47;101.80;;;59.70;;
58101;SDS011;52034;51.926;6.320;2024-03-07T04:40:49;103.10;;;61.97;;
58101;SDS011;52034;51.926;6.320;2024-03-07T04:41:51;103.95;;;62.45;;
58101;SDS011;52034;51.926;6.320;2024-03-07T04:42:58;104.50;;;62.60;;
58101;SDS011;52034;51.926;6.320;2024-03-07T04:45:01;103.78;;;62.35;;
58101;SDS011;52034;51.926;6.320;2024-03-07T04:47:08;110.57;;;63.63;;
58101;SDS011;52034;51.926;6.320;2024-03-07T04:49:12;105.90;;;61.95;;
58101;SDS011;52034;51.926;6.320;2024-03-07T04:50:15;101.35;;;59.58;;
58101;SDS011;52034;51.926;6.320;2024-03-07T04:51:20;105.03;;;60.47;;
58101;SDS011;52034;51.926;6.320;2024-03-07T04:53:23;100.50;;;59.77;;
58101;SDS011;52034;51.926;6.320;2024-03-07T04:54:26;112.03;;;61.50;;
58101;SDS011;52034;51.926;6.320;2024-03-07T04:55:29;98.15;;;60.50;;
58101;SDS011;52034;51.926;6.320;2024-03-07T04:56:31;100.07;;;60.13;;
58101;SDS011;52034;51.926;6.320;2024-03-07T04:57:34;101.32;;;61.30;;
58101;SDS011;52034;51.926;6.320;2024-03-07T04:58:36;102.50;;;60.72;;
58101;SDS011;52034;51.926;6.320;2024-03-07T05:00:39;94.53;;;58.17;;
58101;SDS011;52034;51.926;6.320;2024-03-07T05:02:44;96.82;;;58.58;;
58101;SDS011;52034;51.926;6.320;2024-03-07T05:03:47;106.30;;;62.83;;
58101;SDS011;52034;51.926;6.320;2024-03-07T05:05:51;100.85;;;59.15;;
58101;SDS011;52034;51.926;6.320;2024-03-07T05:07:55;96.87;;;60.33;;
58101;SDS011;52034;51.926;6.320;2024-03-07T05:09:00;99.38;;;59.78;;
58101;SDS011;52034;51.926;6.320;2024-03-07T05:10:05;102.85;;;61.40;;
58101;SDS011;52034;51.926;6.320;2024-03-07T05:11:08;105.20;;;61.47;;
58101;SDS011;52034;51.926;6.320;2024-03-07T05:12:10;105.03;;;62.00;;
58101;SDS011;52034;51.926;6.320;2024-03-07T05:13:12;104.28;;;59.75;;
58101;SDS011;52034;51.926;6.320;2024-03-07T05:15:15;99.20;;;59.60;;
58101;SDS011;52034;51.926;6.320;2024-03-07T05:16:17;102.88;;;60.47;;
58101;SDS011;52034;51.926;6.320;2024-03-07T05:18:21;94.35;;;57.17;;
58101;SDS011;52034;51.926;6.320;2024-03-07T05:19:23;101.28;;;60.47;;
58101;SDS011;52034;51.926;6.320;2024-03-07T05:21:29;96.72;;;59.20;;
58101;SDS011;52034;51.926;6.320;2024-03-07T05:22:34;98.65;;;59.35;;
58101;SDS011;52034;51.926;6.320;2024-03-07T05:23:35;101.30;;;60.35;;
58101;SDS011;52034;51.926;6.320;2024-03-07T05:24:38;101.50;;;61.20;;
58101;SDS011;52034;51.926;6.320;2024-03-07T05:26:42;100.32;;;59.65;;
58101;SDS011;52034;51.926;6.320;2024-03-07T05:28:46;98.80;;;60.72;;
58101;SDS011;52034;51.926;6.320;2024-03-07T05:29:47;104.03;;;61.17;;
58101;SDS011;52034;51.926;6.320;2024-03-07T05:31:51;108.25;;;61.67;;
58101;SDS011;52034;51.926;6.320;2024-03-07T05:32:53;96.50;;;60.03;;
58101;SDS011;52034;51.926;6.320;2024-03-07T05:33:56;104.88;;;61.72;;
58101;SDS011;52034;51.926;6.320;2024-03-07T05:34:58;96.35;;;60.40;;
58101;SDS011;52034;51.926;6.320;2024-03-07T05:37:15;97.28;;;58.60;;
58101;SDS011;52034;51.926;6.320;2024-03-07T05:38:17;101.93;;;61.28;;
58101;SDS011;52034;51.926;6.320;2024-03-07T05:39:19;101.03;;;61.25;;
58101;SDS011;52034;51.926;6.320;2024-03-07T05:40:21;97.38;;;60.13;;
58101;SDS011;52034;51.926;6.320;2024-03-07T05:41:23;95.05;;;60.90;;
58101;SDS011;52034;51.926;6.320;2024-03-07T05:43:27;102.20;;;62.00;;
58101;SDS011;52034;51.926;6.320;2024-03-07T05:44:29;100.97;;;60.00;;
58101;SDS011;52034;51.926;6.320;2024-03-07T05:45:30;106.07;;;63.88;;
58101;SDS011;52034;51.926;6.320;2024-03-07T05:46:32;99.40;;;61.35;;
58101;SDS011;52034;51.926;6.320;2024-03-07T05:47:35;103.10;;;61.97;;
58101;SDS011;52034;51.926;6.320;2024-03-07T05:48:37;102.40;;;62.10;;
58101;SDS011;52034;51.926;6.320;2024-03-07T05:49:39;96.93;;;59.53;;
58101;SDS011;52034;51.926;6.320;2024-03-07T05:50:40;102.97;;;61.25;;
58101;SDS011;52034;51.926;6.320;2024-03-07T05:51:45;95.63;;;59.55;;
58101;SDS011;52034;51.926;6.320;2024-03-07T05:52:47;99.25;;;60.53;;
58101;SDS011;52034;51.926;6.320;2024-03-07T05:53:50;100.53;;;60.65;;
58101;SDS011;52034;51.926;6.320;2024-03-07T05:54:52;102.47;;;60.55;;
58101;SDS011;52034;51.926;6.320;2024-03-07T05:56:56;104.72;;;61.88;;
58101;SDS011;52034;51.926;6.320;2024-03-07T05:58:59;108.63;;;62.85;;
58101;SDS011;52034;51.926;6.320;2024-03-07T06:00:01;100.13;;;60.50;;
58101;SDS011;52034;51.926;6.320;2024-03-07T06:01:12;96.90;;;61.10;;
58101;SDS011;52034;51.926;6.320;2024-03-07T06:03:17;95.15;;;58.55;;
58101;SDS011;52034;51.926;6.320;2024-03-07T06:04:21;100.53;;;60.13;;
58101;SDS011;52034;51.926;6.320;2024-03-07T06:05:23;99.15;;;60.20;;
58101;SDS011;52034;51.926;6.320;2024-03-07T06:06:24;100.78;;;60.33;;
58101;SDS011;52034;51.926;6.320;2024-03-07T06:07:26;95.88;;;58.38;;
58101;SDS011;52034;51.926;6.320;2024-03-07T06:09:30;90.68;;;57.53;;
58101;SDS011;52034;51.926;6.320;2024-03-07T06:11:36;100.97;;;59.65;;
58101;SDS011;52034;51.926;6.320;2024-03-07T06:12:39;95.85;;;59.42;;
58101;SDS011;52034;51.926;6.320;2024-03-07T06:14:02;101.53;;;59.58;;
58101;SDS011;52034;51.926;6.320;2024-03-07T06:15:05;97.03;;;59.53;;
58101;SDS011;52034;51.926;6.320;2024-03-07T06:16:07;90.10;;;56.17;;
58101;SDS011;52034;51.926;6.320;2024-03-07T06:17:09;94.38;;;58.40;;
58101;SDS011;52034;51.926;6.320;2024-03-07T06:18:12;91.15;;;56.05;;
58101;SDS011;52034;51.926;6.320;2024-03-07T06:19:16;91.30;;;57.67;;
58101;SDS011;52034;51.926;6.320;2024-03-07T06:20:18;94.15;;;57.17;;
58101;SDS011;52034;51.926;6.320;2024-03-07T06:21:26;92.25;;;57.38;;
58101;SDS011;52034;51.926;6.320;2024-03-07T06:22:28;94.45;;;58.10;;
58101;SDS011;52034;51.926;6.320;2024-03-07T06:23:30;90.88;;;57.33;;
58101;SDS011;52034;51.926;6.320;2024-03-07T06:24:32;90.57;;;58.00;;
58101;SDS011;52034;51.926;6.320;2024-03-07T06:25:34;90.40;;;57.25;;
58101;SDS011;52034;51.926;6.320;2024-03-07T06:26:48;94.53;;;57.88;;
58101;SDS011;52034;51.926;6.320;2024-03-07T06:28:05;89.57;;;55.33;;
58101;SDS011;52034;51.926;6.320;2024-03-07T06:29:11;90.15;;;55.25;;
58101;SDS011;52034;51.926;6.320;2024-03-07T06:30:14;85.60;;;55.28;;
58101;SDS011;52034;51.926;6.320;2024-03-07T06:31:19;84.70;;;53.83;;
58101;SDS011;52034;51.926;6.320;2024-03-07T06:32:21;91.88;;;57.83;;
58101;SDS011;52034;51.926;6.320;2024-03-07T06:33:24;85.28;;;55.25;;
58101;SDS011;52034;51.926;6.320;2024-03-07T06:34:27;83.47;;;54.80;;
58101;SDS011;52034;51.926;6.320;2024-03-07T06:35:32;88.13;;;54.30;;
58101;SDS011;52034;51.926;6.320;2024-03-07T06:36:38;89.03;;;56.50;;
58101;SDS011;52034;51.926;6.320;2024-03-07T06:37:40;86.75;;;55.03;;
58101;SDS011;52034;51.926;6.320;2024-03-07T06:38:42;91.90;;;56.03;;
58101;SDS011;52034;51.926;6.320;2024-03-07T06:40:45;89.87;;;55.60;;
58101;SDS011;52034;51.926;6.320;2024-03-07T06:41:47;85.93;;;53.95;;
58101;SDS011;52034;51.926;6.320;2024-03-07T06:42:49;93.03;;;55.75;;
58101;SDS011;52034;51.926;6.320;2024-03-07T06:43:52;85.40;;;56.05;;
58101;SDS011;52034;51.926;6.320;2024-03-07T06:44:56;80.75;;;53.80;;
58101;SDS011;52034;51.926;6.320;2024-03-07T06:45:59;83.05;;;53.33;;
58101;SDS011;52034;51.926;6.320;2024-03-07T06:48:03;83.53;;;54.00;;
58101;SDS011;52034;51.926;6.320;2024-03-07T06:49:09;87.05;;;54.10;;
58101;SDS011;52034;51.926;6.320;2024-03-07T06:50:12;82.50;;;53.30;;
58101;SDS011;52034;51.926;6.320;2024-03-07T06:51:33;84.78;;;52.70;;
58101;SDS011;52034;51.926;6.320;2024-03-07T06:53:36;83.35;;;54.28;;
58101;SDS011;52034;51.926;6.320;2024-03-07T06:54:38;87.45;;;54.70;;
58101;SDS011;52034;51.926;6.320;2024-03-07T06:55:40;85.97;;;54.80;;
58101;SDS011;52034;51.926;6.320;2024-03-07T06:57:45;80.57;;;53.13;;
58101;SDS011;52034;51.926;6.320;2024-03-07T06:58:47;81.63;;;52.85;;
58101;SDS011;52034;51.926;6.320;2024-03-07T06:59:50;76.88;;;51.58;;
58101;SDS011;52034;51.926;6.320;2024-03-07T07:00:52;81.05;;;51.78;;
58101;SDS011;52034;51.926;6.320;2024-03-07T07:01:57;83.57;;;53.55;;
58101;SDS011;52034;51.926;6.320;2024-03-07T07:03:05;76.72;;;50.30;;
58101;SDS011;52034;51.926;6.320;2024-03-07T07:04:07;76.38;;;51.38;;
58101;SDS011;52034;51.926;6.320;2024-03-07T07:05:10;80.28;;;53.85;;
58101;SDS011;52034;51.926;6.320;2024-03-07T07:06:16;74.88;;;51.83;;
58101;SDS011;52034;51.926;6.320;2024-03-07T07:08:20;79.25;;;52.13;;
58101;SDS011;52034;51.926;6.320;2024-03-07T07:09:23;74.13;;;48.53;;
58101;SDS011;52034;51.926;6.320;2024-03-07T07:10:25;74.72;;;49.72;;
58101;SDS011;52034;51.926;6.320;2024-03-07T07:11:26;78.95;;;51.15;;
58101;SDS011;52034;51.926;6.320;2024-03-07T07:12:34;74.63;;;48.83;;
58101;SDS011;52034;51.926;6.320;2024-03-07T07:13:36;77.13;;;50.95;;
58101;SDS011;52034;51.926;6.320;2024-03-07T07:15:40;72.82;;;49.60;;
58101;SDS011;52034;51.926;6.320;2024-03-07T07:16:42;73.18;;;50.20;;
58101;SDS011;52034;51.926;6.320;2024-03-07T07:17:47;72.20;;;48.83;;
58101;SDS011;52034;51.926;6.320;2024-03-07T07:18:52;69.45;;;48.50;;
58101;SDS011;52034;51.926;6.320;2024-03-07T07:20:57;71.15;;;49.35;;
58101;SDS011;52034;51.926;6.320;2024-03-07T07:22:06;70.03;;;48.33;;
58101;SDS011;52034;51.926;6.320;2024-03-07T07:23:24;70.93;;;48.97;;
58101;SDS011;52034;51.926;6.320;2024-03-07T07:24:26;68.82;;;48.58;;
58101;SDS011;52034;51.926;6.320;2024-03-07T07:25:30;69.55;;;47.13;;
58101;SDS011;52034;51.926;6.320;2024-03-07T07:26:31;67.93;;;47.50;;
58101;SDS011;52034;51.926;6.320;2024-03-07T07:27:33;64.10;;;47.13;;
58101;SDS011;52034;51.926;6.320;2024-03-07T07:29:37;68.78;;;47.63;;
58101;SDS011;52034;51.926;6.320;2024-03-07T07:30:40;68.00;;;48.40;;
58101;SDS011;52034;51.926;6.320;2024-03-07T07:31:45;70.53;;;48.25;;
58101;SDS011;52034;51.926;6.320;2024-03-07T07:32:47;68.45;;;47.78;;
58101;SDS011;52034;51.926;6.320;2024-03-07T07:34:50;64.03;;;46.42;;
58101;SDS011;52034;51.926;6.320;2024-03-07T07:35:52;63.72;;;45.25;;
58101;SDS011;52034;51.926;6.320;2024-03-07T07:37:55;67.40;;;44.90;;
58101;SDS011;52034;51.926;6.320;2024-03-07T07:38:58;65.90;;;45.42;;
58101;SDS011;52034;51.926;6.320;2024-03-07T07:39:59;68.85;;;46.22;;
58101;SDS011;52034;51.926;6.320;2024-03-07T07:42:03;66.05;;;44.80;;
58101;SDS011;52034;51.926;6.320;2024-03-07T07:43:05;66.28;;;46.95;;